Terminal Aerodrome Forecast
Issued by NWS Louisville, KY

Home | Current Version | Previous Version | Text Only | Print | Product List | Glossary On
Versions: 1 2 3 4 5 6 7 8 9 10 11 12 13 14 15 16 17 18 19
466
FTUS43 KLMK 220242 AAA
TAFBWG
TAF AMD
KBWG 220242Z 2203/2224 VRB03KT 6SM BR FEW250
      TEMPO 2203/2206 3SM BR
     FM220600 VRB03KT 4SM BR SKC
      TEMPO 2206/2210 1SM BR
     FM221000 VRB03KT 2SM BR SKC
      TEMPO 2210/2213 1SM BR
     FM221300 34008KT P6SM SKC=

USA.gov is the U.S. government's official web portal to all federal, state and local government web resources and services.